createdAt,value
2019-03-16T00:00:32.223Z,93.93
2019-03-16T00:02:59.555Z,94.10
2019-03-16T00:05:26.889Z,94.20
2019-03-16T00:07:54.218Z,94.14
2019-03-16T00:10:21.570Z,94.08
2019-03-16T00:12:48.896Z,94.04
2019-03-16T00:15:16.210Z,93.97
2019-03-16T00:17:43.555Z,94.00
2019-03-16T00:20:11.035Z,93.98
2019-03-16T00:22:38.383Z,94.16
2019-03-16T00:25:05.819Z,94.22
2019-03-16T00:27:33.145Z,94.24
2019-03-16T00:30:00.451Z,94.33
2019-03-16T00:32:27.775Z,94.20
2019-03-16T00:34:55.083Z,94.12
2019-03-16T00:37:22.448Z,94.23
2019-03-16T00:39:49.813Z,94.35
2019-03-16T00:42:17.335Z,94.16
2019-03-16T00:44:44.691Z,94.14
2019-03-16T00:47:12.000Z,94.14
2019-03-16T00:49:39.277Z,94.42
2019-03-16T00:52:06.587Z,94.38
2019-03-16T00:54:33.915Z,94.39
2019-03-16T00:57:01.215Z,94.56
2019-03-16T00:59:28.595Z,94.53
2019-03-16T01:01:55.860Z,94.58
2019-03-16T01:04:23.181Z,94.73
2019-03-16T01:06:50.476Z,94.84
2019-03-16T01:09:17.800Z,94.81
2019-03-16T01:11:45.095Z,94.93
2019-03-16T01:14:12.387Z,94.99
2019-03-16T01:16:39.839Z,95.12
2019-03-16T01:19:07.155Z,95.23
2019-03-16T01:21:34.497Z,95.27
2019-03-16T01:24:01.793Z,95.21
2019-03-16T01:26:29.158Z,95.25
2019-03-16T01:28:56.476Z,95.23
2019-03-16T01:31:23.776Z,95.24
2019-03-16T01:33:51.180Z,95.05
2019-03-16T01:36:18.523Z,94.98
2019-03-16T01:38:45.827Z,95.01
2019-03-16T01:41:13.275Z,95.12
2019-03-16T01:43:40.569Z,95.11
2019-03-16T01:46:07.903Z,95.09
2019-03-16T01:48:35.203Z,95.20
2019-03-16T01:51:02.503Z,95.29
2019-03-16T01:53:29.818Z,95.32
2019-03-16T01:55:57.090Z,95.17
2019-03-16T01:58:24.373Z,95.29
2019-03-16T02:00:51.709Z,95.36
2019-03-16T02:03:18.989Z,95.34
2019-03-16T02:05:46.271Z,95.30
2019-03-16T02:08:13.595Z,95.36
2019-03-16T02:10:40.915Z,95.39
2019-03-16T02:13:08.226Z,95.41
2019-03-16T02:15:35.519Z,95.60
2019-03-16T02:18:02.855Z,95.65
2019-03-16T02:20:30.129Z,95.67
2019-03-16T02:22:57.453Z,95.63
2019-03-16T02:25:24.758Z,95.57
2019-03-16T02:27:52.088Z,95.55
2019-03-16T02:30:19.384Z,95.43
2019-03-16T02:32:46.732Z,95.45
2019-03-16T02:35:14.078Z,95.38
2019-03-16T02:37:41.356Z,95.43
2019-03-16T02:40:08.687Z,95.50
2019-03-16T02:42:35.975Z,95.46
2019-03-16T02:45:03.975Z,95.29
2019-03-16T02:47:31.291Z,95.26
2019-03-16T02:49:58.610Z,95.44
2019-03-16T02:52:25.945Z,95.48
2019-03-16T02:54:53.308Z,95.53
2019-03-16T02:57:20.624Z,95.31
2019-03-16T02:59:47.977Z,95.37
2019-03-16T03:02:15.302Z,95.46
2019-03-16T03:04:45.989Z,95.53
2019-03-16T03:07:11.868Z,95.61
2019-03-16T03:09:39.215Z,95.65
2019-03-16T03:12:06.510Z,95.76
2019-03-16T03:14:33.850Z,95.79
2019-03-16T03:17:01.177Z,95.87
2019-03-16T03:19:28.508Z,95.91
2019-03-16T03:21:55.838Z,95.88
2019-03-16T03:24:23.225Z,95.87
2019-03-16T03:26:50.628Z,95.94
2019-03-16T03:29:17.983Z,95.93
2019-03-16T03:31:45.330Z,96.02
2019-03-16T03:34:12.635Z,95.97
2019-03-16T03:36:39.998Z,95.98
2019-03-16T03:39:07.863Z,95.99
2019-03-16T03:41:35.197Z,95.94
2019-03-16T03:44:02.601Z,95.92
2019-03-16T03:46:32.256Z,95.90
2019-03-16T03:48:59.189Z,95.91
2019-03-16T03:51:26.532Z,95.97
2019-03-16T03:53:53.922Z,96.01
2019-03-16T03:56:21.235Z,96.00
2019-03-16T03:58:48.548Z,95.96
2019-03-16T04:01:15.874Z,95.85
2019-03-16T04:03:43.223Z,95.76
2019-03-16T04:06:10.557Z,95.74
2019-03-16T04:08:37.955Z,95.82
2019-03-16T04:11:05.276Z,95.84
2019-03-16T04:13:32.569Z,95.79
2019-03-16T04:15:59.956Z,95.71
2019-03-16T04:18:27.276Z,95.79
2019-03-16T04:20:54.580Z,95.74
2019-03-16T04:23:21.917Z,95.72
2019-03-16T04:25:49.212Z,95.63
2019-03-16T04:28:16.545Z,95.54
2019-03-16T04:30:43.876Z,95.59
2019-03-16T04:33:11.176Z,95.48
2019-03-16T04:35:38.497Z,95.47
2019-03-16T04:38:05.783Z,95.54
2019-03-16T04:40:33.084Z,95.60
2019-03-16T04:43:00.445Z,95.66
2019-03-16T04:45:27.803Z,95.74
2019-03-16T04:47:55.202Z,95.64
2019-03-16T04:50:22.491Z,95.69
2019-03-16T04:52:51.135Z,95.89
2019-03-16T04:55:18.619Z,95.85
2019-03-16T04:57:45.900Z,95.78
2019-03-16T05:00:13.552Z,95.82
2019-03-16T05:02:40.897Z,95.66
2019-03-16T05:05:08.299Z,95.80
2019-03-16T05:07:35.607Z,95.87
2019-03-16T05:10:02.976Z,95.93
2019-03-16T05:12:30.315Z,95.92
2019-03-16T05:14:57.676Z,95.93
2019-03-16T05:17:25.035Z,96.03
2019-03-16T05:19:52.315Z,96.00
2019-03-16T05:22:19.615Z,95.97
2019-03-16T05:24:46.969Z,96.06
2019-03-16T05:27:14.258Z,96.10
2019-03-16T05:29:41.616Z,96.08
2019-03-16T05:32:08.959Z,96.17
2019-03-16T05:34:36.270Z,96.14
2019-03-16T05:37:03.616Z,96.19
2019-03-16T05:39:31.264Z,96.24
2019-03-16T05:41:58.556Z,96.26
2019-03-16T05:44:25.888Z,96.22
2019-03-16T05:46:53.249Z,96.26
2019-03-16T05:49:20.540Z,96.30
2019-03-16T05:51:47.858Z,96.20
2019-03-16T05:54:15.195Z,96.24
2019-03-16T05:56:42.490Z,96.29
2019-03-16T05:59:09.814Z,96.27
2019-03-16T06:01:37.155Z,96.22
2019-03-16T06:04:04.496Z,96.19
2019-03-16T06:06:31.814Z,96.24
2019-03-16T06:08:59.175Z,96.21
2019-03-16T06:11:26.548Z,96.22
2019-03-16T06:13:53.877Z,96.23
2019-03-16T06:16:21.215Z,96.21
2019-03-16T06:18:48.491Z,96.18
2019-03-16T06:21:15.816Z,96.23
2019-03-16T06:23:43.103Z,96.20
2019-03-16T06:26:10.416Z,96.20
2019-03-16T06:28:37.802Z,96.28
2019-03-16T06:31:05.080Z,96.31
2019-03-16T06:33:32.415Z,96.26
2019-03-16T06:35:59.735Z,96.18
2019-03-16T06:38:27.027Z,96.17
2019-03-16T06:40:54.367Z,96.17
2019-03-16T06:43:21.811Z,96.21
2019-03-16T06:45:49.090Z,96.13
2019-03-16T06:48:16.977Z,96.05
2019-03-16T06:50:44.345Z,96.03
2019-03-16T06:53:11.703Z,96.01
2019-03-16T06:55:39.056Z,96.02
2019-03-16T06:58:06.403Z,95.92
2019-03-16T07:00:33.763Z,95.95
2019-03-16T07:03:01.156Z,95.92
2019-03-16T07:05:38.326Z,95.82
2019-03-16T07:07:57.760Z,95.80
2019-03-16T07:10:25.064Z,95.70
2019-03-16T07:12:52.396Z,95.52
2019-03-16T07:15:19.736Z,95.30
2019-03-16T07:17:47.091Z,95.26
2019-03-16T07:20:14.386Z,95.28
2019-03-16T07:22:41.678Z,95.24
2019-03-16T07:25:09.043Z,95.06
2019-03-16T07:27:36.355Z,94.99
2019-03-16T07:30:03.775Z,94.97
2019-03-16T07:32:31.042Z,94.85
2019-03-16T07:34:58.335Z,94.49
2019-03-16T07:37:25.776Z,94.29
2019-03-16T07:39:53.046Z,94.27
2019-03-16T07:42:20.314Z,94.06
2019-03-16T07:44:47.656Z,93.91
2019-03-16T07:47:14.976Z,93.65
2019-03-16T07:49:42.313Z,93.32
2019-03-16T07:52:09.623Z,93.17
2019-03-16T07:54:36.938Z,92.72
2019-03-16T07:57:04.267Z,92.54
2019-03-16T07:59:31.540Z,92.33
2019-03-16T08:01:58.908Z,92.34
2019-03-16T08:04:26.216Z,91.98
2019-03-16T08:06:53.833Z,92.06
2019-03-16T08:12:21.336Z,91.84
2019-03-16T08:14:50.338Z,92.10
2019-03-16T08:17:21.403Z,91.75
2019-03-16T08:19:55.569Z,91.76
2019-03-16T08:22:23.292Z,91.24
2019-03-16T08:24:50.629Z,91.04
2019-03-16T08:27:20.200Z,90.72
2019-03-16T08:29:47.511Z,90.92
2019-03-16T08:32:14.814Z,90.33
2019-03-16T08:34:42.149Z,90.13
2019-03-16T08:37:09.436Z,90.09
2019-03-16T08:39:36.743Z,89.86
2019-03-16T08:42:04.117Z,88.99
2019-03-16T08:44:31.410Z,88.93
2019-03-16T08:46:58.811Z,88.39
2019-03-16T08:49:26.524Z,88.66
2019-03-16T08:51:53.937Z,89.02
2019-03-16T08:54:21.230Z,89.26
2019-03-16T08:56:48.531Z,88.66
2019-03-16T08:59:15.936Z,87.72
2019-03-16T09:01:43.256Z,87.52
2019-03-16T09:04:10.559Z,87.06
2019-03-16T09:06:37.955Z,85.17
2019-03-16T09:09:06.975Z,84.91
2019-03-16T09:11:34.352Z,82.70
2019-03-16T09:14:01.701Z,82.55
2019-03-16T09:16:28.990Z,80.88
2019-03-16T09:18:56.263Z,79.51
2019-03-16T09:21:23.571Z,79.43
2019-03-16T09:23:50.917Z,79.48
2019-03-16T09:26:18.261Z,79.55
2019-03-16T09:28:45.615Z,79.60
2019-03-16T09:31:12.955Z,79.64
2019-03-16T09:33:40.366Z,80.74
2019-03-16T09:36:07.735Z,80.23
2019-03-16T09:38:35.116Z,82.38
2019-03-16T09:41:02.455Z,81.33
2019-03-16T09:43:29.811Z,80.10
2019-03-16T09:45:57.196Z,78.89
2019-03-16T09:48:24.517Z,78.37
2019-03-16T09:50:52.086Z,77.12
2019-03-16T09:53:19.442Z,80.52
2019-03-16T09:55:46.685Z,80.59
2019-03-16T09:58:14.034Z,80.55
2019-03-16T10:00:41.374Z,76.14
2019-03-16T10:03:08.694Z,76.20
2019-03-16T10:05:35.993Z,75.03
2019-03-16T10:08:03.259Z,76.31
2019-03-16T10:10:30.588Z,77.32
2019-03-16T10:12:58.453Z,75.59
2019-03-16T10:15:25.786Z,75.80
2019-03-16T10:17:53.074Z,76.28
2019-03-16T10:20:20.421Z,76.76
2019-03-16T10:22:47.713Z,73.74
2019-03-16T10:25:15.036Z,70.74
2019-03-16T10:27:42.397Z,74.88
2019-03-16T10:30:10.011Z,77.38
2019-03-16T10:32:37.382Z,76.98
2019-03-16T10:35:05.280Z,76.86
2019-03-16T10:37:32.599Z,75.58
2019-03-16T10:39:59.922Z,75.45
2019-03-16T10:42:27.234Z,75.64
2019-03-16T10:44:54.608Z,75.04
2019-03-16T10:47:21.912Z,75.50
2019-03-16T10:49:49.273Z,73.81
2019-03-16T10:52:16.573Z,73.93
2019-03-16T10:54:43.900Z,68.79
2019-03-16T10:57:11.234Z,62.79
2019-03-16T10:59:38.592Z,58.08
2019-03-16T11:02:06.996Z,56.26
2019-03-16T11:04:34.317Z,55.23
2019-03-16T11:07:01.716Z,65.60
2019-03-16T11:09:29.082Z,68.27
2019-03-16T11:11:56.391Z,63.33
2019-03-16T11:14:23.738Z,52.35
2019-03-16T11:16:51.096Z,55.48
2019-03-16T11:19:18.445Z,56.53
2019-03-16T11:21:45.821Z,52.85
2019-03-16T11:24:13.156Z,51.70
2019-03-16T11:26:40.507Z,52.64
2019-03-16T11:29:09.148Z,55.06
2019-03-16T11:31:36.741Z,50.44
2019-03-16T11:34:04.050Z,53.79
2019-03-16T11:36:31.481Z,51.83
2019-03-16T11:38:58.782Z,51.89
2019-03-16T11:41:26.186Z,50.48
2019-03-16T11:43:53.525Z,48.85
2019-03-16T11:46:21.885Z,49.30
2019-03-16T11:48:49.207Z,51.49
2019-03-16T11:51:16.583Z,49.70
2019-03-16T11:53:43.839Z,51.95
2019-03-16T11:56:17.846Z,49.01
2019-03-16T11:58:40.516Z,49.90
2019-03-16T12:01:07.931Z,46.43
2019-03-16T12:03:35.279Z,46.34
2019-03-16T12:06:02.634Z,45.86
2019-03-16T12:08:30.052Z,45.96
2019-03-16T12:10:57.461Z,45.66
2019-03-16T12:13:24.843Z,46.09
2019-03-16T12:15:52.184Z,45.19
2019-03-16T12:18:19.514Z,45.76
2019-03-16T12:20:46.925Z,44.40
2019-03-16T12:23:14.378Z,44.94
2019-03-16T12:25:41.924Z,44.79
2019-03-16T12:28:09.263Z,43.42
2019-03-16T12:30:36.702Z,43.88
2019-03-16T12:33:04.116Z,44.33
2019-03-16T12:35:31.510Z,44.74
2019-03-16T12:37:58.923Z,44.54
2019-03-16T12:40:26.327Z,44.15
2019-03-16T12:42:53.850Z,43.12
2019-03-16T12:45:21.387Z,43.04
2019-03-16T12:47:48.771Z,44.05
2019-03-16T12:50:16.211Z,42.79
2019-03-16T12:52:43.637Z,42.91
2019-03-16T12:55:11.131Z,46.98
2019-03-16T12:57:38.530Z,43.84
2019-03-16T13:00:07.476Z,42.99
2019-03-16T13:02:34.816Z,46.14
2019-03-16T13:05:02.235Z,41.59
2019-03-16T13:07:29.647Z,42.73
2019-03-16T13:09:57.043Z,44.64
2019-03-16T13:12:24.684Z,43.13
2019-03-16T13:14:52.175Z,41.21
2019-03-16T13:17:21.090Z,41.82
2019-03-16T13:19:48.468Z,39.67
2019-03-16T13:22:15.929Z,41.55
2019-03-16T13:24:43.511Z,40.13
2019-03-16T13:27:11.031Z,38.64
2019-03-16T13:29:38.503Z,37.87
2019-03-16T13:32:05.903Z,38.44
2019-03-16T13:34:33.459Z,38.98
2019-03-16T13:37:01.023Z,38.96
2019-03-16T13:39:28.488Z,38.54
2019-03-16T13:41:56.125Z,39.84
2019-03-16T13:44:23.636Z,39.70
2019-03-16T13:46:51.135Z,37.82
2019-03-16T13:49:18.690Z,39.68
2019-03-16T13:51:46.357Z,39.61
2019-03-16T13:54:14.148Z,39.15
2019-03-16T13:56:41.713Z,40.88
2019-03-16T13:59:09.237Z,38.57
2019-03-16T14:01:37.056Z,40.97
2019-03-16T14:04:04.891Z,39.41
2019-03-16T14:06:32.581Z,38.76
2019-03-16T14:09:00.381Z,38.03
2019-03-16T14:11:27.997Z,36.90
2019-03-16T14:13:55.551Z,35.50
2019-03-16T14:16:24.606Z,34.58
2019-03-16T14:18:52.171Z,34.67
2019-03-16T14:21:19.691Z,34.53
2019-03-16T14:23:47.369Z,34.31
2019-03-16T14:26:14.967Z,35.32
2019-03-16T14:28:42.523Z,34.39
2019-03-16T14:31:10.313Z,34.50
2019-03-16T14:33:37.935Z,36.83
2019-03-16T14:36:05.808Z,34.47
2019-03-16T14:38:33.514Z,34.38
2019-03-16T14:41:00.975Z,35.66
2019-03-16T14:43:28.691Z,35.31
2019-03-16T14:45:56.397Z,38.78
2019-03-16T14:48:24.372Z,35.93
2019-03-16T14:50:52.060Z,34.78
2019-03-16T14:53:19.813Z,33.30
2019-03-16T14:55:47.603Z,39.73
2019-03-16T14:58:15.194Z,33.16
2019-03-16T15:00:43.031Z,35.63
2019-03-16T15:03:10.697Z,36.61
2019-03-16T15:05:38.545Z,37.02
2019-03-16T15:08:06.346Z,37.75
2019-03-16T15:10:34.120Z,34.54
2019-03-16T15:13:01.840Z,36.08
2019-03-16T15:15:29.571Z,33.36
2019-03-16T15:17:57.335Z,33.99
2019-03-16T15:20:25.023Z,39.07
2019-03-16T15:22:53.594Z,41.79
2019-03-16T15:25:21.437Z,40.52
2019-03-16T15:27:49.090Z,38.01
2019-03-16T15:30:16.903Z,41.48
2019-03-16T15:32:44.704Z,46.10
2019-03-16T15:35:12.593Z,49.26
2019-03-16T15:37:40.333Z,47.80
2019-03-16T15:40:08.838Z,50.28
2019-03-16T15:42:36.416Z,52.84
2019-03-16T15:45:06.221Z,53.72
2019-03-16T15:47:33.893Z,53.57
2019-03-16T15:50:05.187Z,55.09
2019-03-16T15:52:32.893Z,53.51
2019-03-16T15:55:00.636Z,52.58
2019-03-16T15:57:28.390Z,52.25
2019-03-16T15:59:56.071Z,51.71
2019-03-16T16:02:26.535Z,51.82
2019-03-16T16:04:54.183Z,51.13
2019-03-16T16:07:21.811Z,52.25
2019-03-16T16:09:49.454Z,51.69
2019-03-16T16:12:17.103Z,52.34
2019-03-16T16:14:44.824Z,53.03
2019-03-16T16:17:12.680Z,55.01
2019-03-16T16:19:40.326Z,55.16
2019-03-16T16:22:09.214Z,57.12
2019-03-16T16:24:36.975Z,55.78
2019-03-16T16:27:04.870Z,56.31
2019-03-16T16:29:33.868Z,57.22
2019-03-16T16:32:01.449Z,58.14
2019-03-16T16:34:29.114Z,57.22
2019-03-16T16:36:56.719Z,56.49
2019-03-16T16:39:24.392Z,57.78
2019-03-16T16:41:51.993Z,56.13
2019-03-16T16:44:19.692Z,54.21
2019-03-16T16:46:47.290Z,56.29
2019-03-16T16:49:14.916Z,54.86
2019-03-16T16:51:42.589Z,54.97
2019-03-16T16:54:10.382Z,57.33
2019-03-16T16:56:38.099Z,56.32
2019-03-16T16:59:05.803Z,55.58
2019-03-16T17:01:33.844Z,55.50
2019-03-16T17:04:01.463Z,54.54
2019-03-16T17:06:28.992Z,54.42
2019-03-16T17:08:56.589Z,53.62
2019-03-16T17:11:26.216Z,53.45
2019-03-16T17:13:53.846Z,55.73
2019-03-16T17:16:21.568Z,54.23
2019-03-16T17:18:49.823Z,54.60
2019-03-16T17:21:17.428Z,57.78
2019-03-16T17:23:45.156Z,60.20
2019-03-16T17:26:12.937Z,57.52
2019-03-16T17:28:42.908Z,56.43
2019-03-16T17:31:12.461Z,55.71
2019-03-16T17:33:41.286Z,54.92
2019-03-16T17:36:09.020Z,55.42
2019-03-16T17:38:36.879Z,56.19
2019-03-16T17:41:04.628Z,58.51
2019-03-16T17:43:32.296Z,58.59
2019-03-16T17:45:59.922Z,56.64
2019-03-16T17:48:29.783Z,54.82
2019-03-16T17:50:57.217Z,55.37
2019-03-16T17:53:24.925Z,56.59
2019-03-16T17:55:52.551Z,58.86
2019-03-16T17:58:20.366Z,60.08
2019-03-16T18:00:48.091Z,59.91
2019-03-16T18:03:15.756Z,60.14
2019-03-16T18:05:43.521Z,59.13
2019-03-16T18:08:11.313Z,59.12
2019-03-16T18:10:38.966Z,56.47
2019-03-16T18:13:06.585Z,55.71
2019-03-16T18:15:34.245Z,55.48
2019-03-16T18:18:01.969Z,57.47
2019-03-16T18:20:29.640Z,59.49
2019-03-16T18:22:57.286Z,58.37
2019-03-16T18:25:25.026Z,61.19
2019-03-16T18:27:53.771Z,62.32
2019-03-16T18:30:21.497Z,61.93
2019-03-16T18:32:49.568Z,61.57
2019-03-16T18:35:17.422Z,64.86
2019-03-16T18:37:45.047Z,65.04
2019-03-16T18:40:13.245Z,64.99
2019-03-16T18:42:40.908Z,64.65
2019-03-16T18:45:21.665Z,63.81
2019-03-16T18:47:49.364Z,64.69
2019-03-16T18:50:17.213Z,65.97
2019-03-16T18:52:45.177Z,64.29
2019-03-16T18:55:12.887Z,63.95
2019-03-16T18:57:40.941Z,65.01
2019-03-16T19:00:11.136Z,63.06
2019-03-16T19:02:38.887Z,62.01
2019-03-16T19:05:07.258Z,65.08
2019-03-16T19:07:36.228Z,62.83
2019-03-16T19:10:05.344Z,62.33
2019-03-16T19:12:33.240Z,64.08
2019-03-16T19:15:01.015Z,66.19
2019-03-16T19:17:28.860Z,66.13
2019-03-16T19:19:56.668Z,67.64
2019-03-16T19:22:24.816Z,64.39
2019-03-16T19:24:52.982Z,67.82
2019-03-16T19:27:20.959Z,66.74
2019-03-16T19:29:49.533Z,67.78
2019-03-16T19:32:17.531Z,68.97
2019-03-16T19:34:48.205Z,67.84
2019-03-16T19:37:15.878Z,68.16
2019-03-16T19:39:43.799Z,67.83
2019-03-16T19:42:13.785Z,68.48
2019-03-16T19:44:41.506Z,69.09
2019-03-16T19:47:09.903Z,69.29
2019-03-16T19:49:38.679Z,67.87
2019-03-16T19:52:06.630Z,69.26
2019-03-16T19:54:34.244Z,68.44
2019-03-16T19:57:15.036Z,69.06
2019-03-16T19:59:31.639Z,69.25
2019-03-16T20:01:59.356Z,70.10
2019-03-16T20:04:36.072Z,69.86
2019-03-16T20:06:56.854Z,70.27
2019-03-16T20:09:24.715Z,70.39
2019-03-16T20:11:52.541Z,70.60
2019-03-16T20:14:20.528Z,69.54
2019-03-16T20:16:48.236Z,68.09
2019-03-16T20:19:15.918Z,67.93
2019-03-16T20:21:43.756Z,67.93
2019-03-16T20:24:11.417Z,67.84
2019-03-16T20:26:39.075Z,68.92
2019-03-16T20:29:08.030Z,70.51
2019-03-16T20:31:46.364Z,70.59
2019-03-16T20:34:07.621Z,69.38
2019-03-16T20:36:35.675Z,68.86
2019-03-16T20:39:05.209Z,69.96
2019-03-16T20:41:36.311Z,69.24
2019-03-16T20:44:02.768Z,70.20
2019-03-16T20:46:30.499Z,70.68
2019-03-16T20:48:58.522Z,69.87
2019-03-16T20:51:26.180Z,69.57
2019-03-16T20:53:56.647Z,70.55
2019-03-16T20:56:28.913Z,71.01
2019-03-16T20:58:57.326Z,71.34
2019-03-16T21:01:25.197Z,71.02
2019-03-16T21:03:52.823Z,71.72
2019-03-16T21:06:20.389Z,70.83
2019-03-16T21:08:48.135Z,70.94
2019-03-16T21:11:15.806Z,70.70
2019-03-16T21:13:43.411Z,70.77
2019-03-16T21:16:11.779Z,71.52
2019-03-16T21:18:39.731Z,71.85
2019-03-16T21:21:07.414Z,71.07
2019-03-16T21:23:35.269Z,71.54
2019-03-16T21:26:03.945Z,71.90
2019-03-16T21:28:31.559Z,71.53
2019-03-16T21:30:59.174Z,72.45
2019-03-16T21:33:29.732Z,72.95
2019-03-16T21:35:56.274Z,71.96
2019-03-16T21:38:23.876Z,70.85
2019-03-16T21:40:51.630Z,70.11
2019-03-16T21:43:19.476Z,70.01
2019-03-16T21:45:47.112Z,70.14
2019-03-16T21:48:15.056Z,71.50
2019-03-16T21:50:42.720Z,70.96
2019-03-16T21:53:10.231Z,71.69
2019-03-16T21:55:37.774Z,71.64
2019-03-16T21:58:05.233Z,66.38
2019-03-16T22:00:32.631Z,65.81
2019-03-16T22:03:00.089Z,65.08
2019-03-16T22:05:27.808Z,66.45
2019-03-16T22:07:55.253Z,69.59
2019-03-16T22:10:22.649Z,70.54
2019-03-16T22:12:50.437Z,70.54
2019-03-16T22:15:18.039Z,65.61
2019-03-16T22:17:45.420Z,60.54
2019-03-16T22:20:12.892Z,61.95
2019-03-16T22:22:40.242Z,63.50
2019-03-16T22:25:07.592Z,68.72
2019-03-16T22:27:34.936Z,69.72
2019-03-16T22:30:02.237Z,70.71
2019-03-16T22:32:29.578Z,69.79
2019-03-16T22:34:56.899Z,70.60
2019-03-16T22:37:24.196Z,70.14
2019-03-16T22:39:51.543Z,70.21
2019-03-16T22:42:18.836Z,69.78
2019-03-16T22:44:46.168Z,68.56
2019-03-16T22:47:13.443Z,69.62
2019-03-16T22:49:40.783Z,69.52
2019-03-16T22:52:08.067Z,68.94
2019-03-16T22:54:35.395Z,69.59
2019-03-16T22:57:02.720Z,69.31
2019-03-16T22:59:30.616Z,69.59
2019-03-16T23:01:57.917Z,69.72
2019-03-16T23:04:25.297Z,69.58
2019-03-16T23:06:52.635Z,70.03
2019-03-16T23:09:19.955Z,70.07
2019-03-16T23:11:47.276Z,69.52
2019-03-16T23:14:14.635Z,69.00
2019-03-16T23:16:42.003Z,69.78
2019-03-16T23:19:09.418Z,70.50
2019-03-16T23:21:36.690Z,69.59
2019-03-16T23:24:04.048Z,69.87
2019-03-16T23:26:38.251Z,68.67
2019-03-16T23:29:00.671Z,69.42
2019-03-16T23:31:27.932Z,69.26
2019-03-16T23:33:55.276Z,69.61
2019-03-16T23:36:22.615Z,69.10
2019-03-16T23:38:49.946Z,70.05
2019-03-16T23:41:17.282Z,69.56
2019-03-16T23:43:44.693Z,69.54
2019-03-16T23:46:12.000Z,69.89
2019-03-16T23:48:39.368Z,69.34
2019-03-16T23:51:06.657Z,70.02
2019-03-16T23:53:33.935Z,71.24
2019-03-16T23:56:01.298Z,70.85
2019-03-16T23:58:28.609Z,71.60
